Time;durP1;ratioP1;P1;durP2;ratioP2;P2;SDS_P1;SDS_P2;PMS_P1;PMS_P2;Temp;Humidity;BMP_temperature;BMP_pressure;BME280_temperature;BME280_humidity;BME280_pressure;Samples;Min_cycle;Max_cycle;Signal;HPM_P1;HPM_P2
2021/12/14 00:01:12;;;;;;;3.47;0.90;;;10.60;99.90;;;;;;5052778;28;20481;-71
2021/12/14 00:03:42;;;;;;;5.00;1.27;;;10.50;99.90;;;;;;5052353;28;20120;-71
2021/12/14 00:06:10;;;;;;;6.55;0.90;;;10.50;99.90;;;;;;5051320;28;20036;-71
2021/12/14 00:08:48;;;;;;;5.90;0.75;;;10.50;99.90;;;;;;5052386;28;20486;-71
2021/12/14 00:11:33;;;;;;;7.53;1.23;;;10.50;99.90;;;;;;5052962;28;20025;-71
2021/12/14 00:16:46;;;;;;;7.30;0.80;;;10.60;99.90;;;;;;5052043;28;20088;-70
2021/12/14 00:19:13;;;;;;;4.95;1.05;;;10.60;99.90;;;;;;5052248;28;20467;-71
2021/12/14 00:21:43;;;;;;;5.50;1.05;;;10.60;99.90;;;;;;5052102;28;20061;-71
2021/12/14 00:24:14;;;;;;;4.85;1.00;;;10.60;99.90;;;;;;5052594;28;20013;-71
2021/12/14 00:26:45;;;;;;;2.30;0.88;;;10.50;99.90;;;;;;5052076;28;20029;-71
2021/12/14 00:29:34;;;;;;;4.03;0.88;;;10.50;99.90;;;;;;5052076;28;20394;-71
2021/12/14 00:32:03;;;;;;;3.83;0.93;;;10.50;99.90;;;;;;5052500;28;20484;-71
2021/12/14 00:34:42;;;;;;;7.90;1.20;;;10.50;99.90;;;;;;5051997;28;20051;-72
2021/12/14 00:37:17;;;;;;;4.88;1.00;;;10.50;99.90;;;;;;5052262;28;20167;-71
2021/12/14 00:39:44;;;;;;;4.07;1.23;;;10.50;99.90;;;;;;5034067;28;20033;-70
2021/12/14 00:42:11;;;;;;;2.72;0.90;;;10.50;99.90;;;;;;5052016;28;20414;-71
2021/12/14 00:44:38;;;;;;;3.35;0.98;;;10.40;99.90;;;;;;5034913;28;20110;-71
2021/12/14 00:47:04;;;;;;;4.18;0.98;;;10.40;99.90;;;;;;5052391;28;20025;-71
2021/12/14 00:49:31;;;;;;;7.72;1.00;;;10.40;99.90;;;;;;5051873;28;20025;-71
2021/12/14 00:51:59;;;;;;;6.35;1.15;;;10.40;99.90;;;;;;5052199;28;20422;-70
2021/12/14 00:54:25;;;;;;;5.13;1.00;;;10.40;99.90;;;;;;5034951;28;20129;-70
2021/12/14 00:56:52;;;;;;;7.85;1.10;;;10.40;99.90;;;;;;5034001;28;20047;-72
2021/12/14 00:59:21;;;;;;;5.18;1.00;;;10.40;99.90;;;;;;5051887;28;20078;-71
2021/12/14 01:02:17;;;;;;;5.03;1.00;;;10.40;99.90;;;;;;5033860;28;20037;-70
2021/12/14 01:04:48;;;;;;;5.60;1.23;;;10.50;99.90;;;;;;5050864;28;20422;-66
2021/12/14 01:07:17;;;;;;;2.85;1.00;;;10.50;99.90;;;;;;5052068;28;20113;-71
2021/12/14 01:09:49;;;;;;;3.47;0.90;;;10.50;99.90;;;;;;5052026;28;20112;-70
2021/12/14 01:12:29;;;;;;;2.55;0.77;;;10.50;99.90;;;;;;5051883;28;20033;-71
2021/12/14 01:18:02;;;;;;;6.07;0.90;;;10.40;99.90;;;;;;5054020;28;20136;-71
2021/12/14 01:20:37;;;;;;;2.80;1.10;;;10.40;99.90;;;;;;5055368;28;20029;-72
2021/12/14 01:23:14;;;;;;;4.60;0.80;;;10.50;99.90;;;;;;5055543;28;20111;-71
2021/12/14 01:25:41;;;;;;;1.98;0.75;;;10.50;99.90;;;;;;5055272;28;20028;-71
2021/12/14 01:28:12;;;;;;;4.20;0.98;;;10.50;99.90;;;;;;5055233;28;20465;-71
2021/12/14 01:31:15;;;;;;;3.63;0.90;;;10.60;99.90;;;;;;5054725;28;20025;-71
2021/12/14 01:33:47;;;;;;;5.00;1.05;;;10.50;99.90;;;;;;5037368;28;20393;-71
2021/12/14 01:36:36;;;;;;;4.35;0.90;;;10.50;99.90;;;;;;5054839;28;20029;-71
2021/12/14 01:41:56;;;;;;;4.90;0.85;;;10.50;99.90;;;;;;5055211;28;20037;-71
2021/12/14 01:44:24;;;;;;;3.53;0.93;;;10.50;99.90;;;;;;5055169;28;20139;-71
2021/12/14 01:46:56;;;;;;;5.10;1.00;;;10.50;99.90;;;;;;5036854;28;20067;-72
2021/12/14 01:49:25;;;;;;;4.97;1.38;;;10.40;99.90;;;;;;5055075;28;20025;-72
2021/12/14 01:51:54;;;;;;;3.38;1.00;;;10.40;99.90;;;;;;5037037;28;20117;-71
2021/12/14 01:54:25;;;;;;;3.92;1.02;;;10.30;99.90;;;;;;5036788;28;20083;-71
2021/12/14 01:56:52;;;;;;;4.70;1.00;;;10.30;99.90;;;;;;5055109;28;20060;-72
2021/12/14 01:59:34;;;;;;;3.45;0.80;;;10.30;99.90;;;;;;5036711;28;20025;-71
2021/12/14 02:04:47;;;;;;;4.35;1.05;;;10.30;99.90;;;;;;5038519;28;20044;-71
2021/12/14 02:07:16;;;;;;;7.10;1.10;;;10.30;99.90;;;;;;5054365;28;20052;-70
2021/12/14 02:09:48;;;;;;;5.18;1.10;;;10.30;99.90;;;;;;5054298;28;20036;-70
2021/12/14 02:12:23;;;;;;;5.82;0.98;;;10.30;99.90;;;;;;5054881;28;20108;-71
2021/12/14 02:14:50;;;;;;;5.65;1.10;;;10.20;99.90;;;;;;5054887;28;20485;-71
2021/12/14 02:17:19;;;;;;;5.70;0.90;;;10.20;99.90;;;;;;5054186;28;20032;-71
2021/12/14 02:19:47;;;;;;;2.92;0.80;;;10.20;99.90;;;;;;5036273;28;20024;-71
2021/12/14 02:22:14;;;;;;;3.80;0.82;;;10.20;99.90;;;;;;5054636;28;20142;-71
2021/12/14 02:24:46;;;;;;;2.67;1.13;;;10.20;99.90;;;;;;5054640;28;20145;-71
2021/12/14 02:27:12;;;;;;;3.40;0.80;;;10.20;99.90;;;;;;5054327;28;20029;-72
2021/12/14 02:29:43;;;;;;;3.10;0.80;;;10.20;99.90;;;;;;5035183;28;20029;-71
2021/12/14 02:32:19;;;;;;;4.78;1.17;;;10.20;99.90;;;;;;5054500;28;20032;-71
2021/12/14 02:34:50;;;;;;;3.70;0.80;;;10.20;99.90;;;;;;5054180;28;20021;-71
2021/12/14 02:37:19;;;;;;;6.18;1.05;;;10.20;99.90;;;;;;5054079;28;20488;-73
2021/12/14 02:39:48;;;;;;;5.53;1.48;;;10.20;99.90;;;;;;5054081;28;20029;-71
2021/12/14 02:42:23;;;;;;;3.10;0.90;;;10.10;99.90;;;;;;5036200;28;20082;-71
2021/12/14 02:44:52;;;;;;;3.95;0.95;;;10.20;99.90;;;;;;5035873;28;20112;-71
2021/12/14 02:47:19;;;;;;;3.63;0.93;;;10.20;99.90;;;;;;5035729;28;20062;-71
2021/12/14 02:49:48;;;;;;;5.57;1.02;;;10.20;99.90;;;;;;5053674;28;20033;-71
2021/12/14 02:52:25;;;;;;;3.58;0.95;;;10.10;99.90;;;;;;5053545;28;20021;-71
2021/12/14 02:54:56;;;;;;;2.53;0.90;;;10.10;99.90;;;;;;5054162;28;20013;-70
2021/12/14 02:57:27;;;;;;;6.10;1.50;;;10.20;99.90;;;;;;5035479;28;20041;-71
2021/12/14 02:59:55;;;;;;;3.53;0.80;;;10.10;99.90;;;;;;5053279;28;20043;-72
2021/12/14 03:02:33;;;;;;;5.22;0.93;;;10.10;99.90;;;;;;5053665;28;20037;-71
2021/12/14 03:05:06;;;;;;;2.30;0.70;;;10.10;99.90;;;;;;5053345;28;20017;-71
2021/12/14 03:07:43;;;;;;;6.38;0.98;;;10.20;99.90;;;;;;5053260;28;20025;-71
2021/12/14 03:12:54;;;;;;;2.80;0.60;;;10.20;99.90;;;;;;5053238;28;20025;-71
2021/12/14 03:15:29;;;;;;;3.03;0.70;;;10.20;99.90;;;;;;5053103;28;20047;-71
2021/12/14 03:17:59;;;;;;;5.63;0.93;;;10.30;99.90;;;;;;5053400;28;20044;-72
2021/12/14 03:20:30;;;;;;;3.70;0.80;;;10.30;99.90;;;;;;5053538;28;20029;-71
2021/12/14 03:23:01;;;;;;;5.85;1.00;;;10.40;99.90;;;;;;5053559;28;20025;-71
2021/12/14 03:25:29;;;;;;;4.10;0.82;;;10.50;99.90;;;;;;5053248;28;20330;-73
2021/12/14 03:27:57;;;;;;;5.85;1.10;;;10.50;99.90;;;;;;5052775;28;20152;-71
2021/12/14 03:30:26;;;;;;;6.75;1.10;;;10.40;99.90;;;;;;5053083;28;20033;-71
2021/12/14 03:32:54;;;;;;;4.05;1.02;;;10.40;99.90;;;;;;5034947;28;20035;-71
2021/12/14 03:35:33;;;;;;;2.90;0.80;;;10.40;99.90;;;;;;5035290;28;20029;-71
2021/12/14 03:38:07;;;;;;;5.40;1.05;;;10.40;99.90;;;;;;5053002;28;20070;-72
2021/12/14 03:40:34;;;;;;;5.18;1.05;;;10.40;99.90;;;;;;5034614;28;20021;-71
2021/12/14 03:43:00;;;;;;;6.07;1.45;;;10.30;99.90;;;;;;5034897;28;20025;-72
2021/12/14 03:45:26;;;;;;;6.17;1.70;;;10.30;99.90;;;;;;5053156;28;20028;-71
2021/12/14 03:47:58;;;;;;;5.73;2.57;;;10.30;99.90;;;;;;5052741;28;20326;-71
2021/12/14 03:50:35;;;;;;;9.60;3.90;;;10.30;99.90;;;;;;5034702;28;20746;-71
2021/12/14 03:53:02;;;;;;;11.20;3.92;;;10.30;99.90;;;;;;5052550;28;20021;-71
2021/12/14 03:55:32;;;;;;;7.57;2.30;;;10.30;99.90;;;;;;5052895;28;20029;-71
2021/12/14 03:57:59;;;;;;;8.52;1.80;;;10.30;99.90;;;;;;5053064;28;20083;-71
2021/12/14 04:00:33;;;;;;;4.70;1.30;;;10.30;99.90;;;;;;5052768;28;20021;-76
2021/12/14 04:03:05;;;;;;;8.35;1.50;;;10.40;99.90;;;;;;5052416;28;20033;-71
2021/12/14 04:05:34;;;;;;;7.47;1.08;;;10.30;99.90;;;;;;5052994;28;20100;-71
2021/12/14 04:08:00;;;;;;;6.28;1.00;;;10.30;99.90;;;;;;5052316;28;20394;-71
2021/12/14 04:10:30;;;;;;;4.25;0.95;;;10.30;99.90;;;;;;5034384;28;20330;-73
2021/12/14 04:12:57;;;;;;;5.88;1.02;;;10.20;99.90;;;;;;5052335;28;20206;-73
2021/12/14 04:15:23;;;;;;;;;;;10.30;99.90;;;;;;5052751;28;20036;-71
2021/12/14 04:17:50;;;;;;;3.22;0.88;;;10.20;99.90;;;;;;5052786;28;19919;-71
2021/12/14 04:20:22;;;;;;;4.97;1.20;;;10.20;99.90;;;;;;5052244;28;20029;-71
2021/12/14 04:22:49;;;;;;;4.88;1.20;;;10.20;99.90;;;;;;5034346;28;20280;-71
2021/12/14 04:25:23;;;;;;;7.70;0.90;;;10.20;99.90;;;;;;5052243;28;20119;-71
2021/12/14 04:27:51;;;;;;;3.55;0.95;;;10.20;99.90;;;;;;5052241;28;20477;-71
2021/12/14 04:30:21;;;;;;;4.03;1.02;;;10.20;99.90;;;;;;5034844;28;20469;-71
2021/12/14 04:32:50;;;;;;;4.53;1.00;;;10.10;99.90;;;;;;5052174;28;20104;-71
2021/12/14 04:35:18;;;;;;;4.65;1.00;;;10.10;99.90;;;;;;5052350;28;20029;-71
2021/12/14 04:37:54;;;;;;;5.18;1.00;;;10.10;99.90;;;;;;5052008;28;20124;-71
2021/12/14 04:54:23;;;;;;;5.38;1.38;;;10.10;99.90;;;;;;5056247;28;20140;-71
2021/12/14 04:56:49;;;;;;;3.72;0.98;;;10.00;99.90;;;;;;5055720;28;20029;-71
2021/12/14 04:59:20;;;;;;;2.58;0.80;;;10.10;99.90;;;;;;5055699;28;20024;-72
2021/12/14 05:01:49;;;;;;;8.50;0.90;;;10.10;99.90;;;;;;5056098;28;20472;-71
2021/12/14 05:04:19;;;;;;;6.18;1.30;;;10.00;99.90;;;;;;5055932;28;20033;-71
2021/12/14 05:06:54;;;;;;;5.50;0.80;;;10.00;99.90;;;;;;5038325;28;20119;-71
2021/12/14 05:09:32;;;;;;;5.20;1.25;;;10.00;99.90;;;;;;5055808;28;20025;-71
2021/12/14 05:12:04;;;;;;;3.38;0.90;;;10.00;99.90;;;;;;5037562;28;20393;-71
2021/12/14 05:14:31;;;;;;;4.43;1.40;;;9.90;99.90;;;;;;5038185;28;20343;-71
2021/12/14 05:17:01;;;;;;;4.65;0.95;;;9.90;99.90;;;;;;5055597;28;20469;-69
2021/12/14 05:19:31;;;;;;;4.45;1.00;;;9.90;99.90;;;;;;5055895;28;20540;-71
2021/12/14 05:22:06;;;;;;;6.93;1.25;;;9.90;99.90;;;;;;5055305;28;20029;-71
2021/12/14 05:24:32;;;;;;;6.40;1.33;;;9.80;99.90;;;;;;5055537;28;20028;-71
2021/12/14 05:27:02;;;;;;;3.80;1.00;;;9.90;99.90;;;;;;5055313;28;20025;-71
2021/12/14 05:29:30;;;;;;;3.83;0.90;;;9.90;99.90;;;;;;5037260;28;20041;-71
2021/12/14 05:31:59;;;;;;;4.43;1.30;;;9.90;99.90;;;;;;5037519;28;20028;-71
2021/12/14 05:34:27;;;;;;;7.03;0.90;;;10.00;99.90;;;;;;5055049;28;20056;-70
2021/12/14 05:36:55;;;;;;;3.72;1.10;;;10.00;99.90;;;;;;5054982;28;20120;-71
2021/12/14 05:44:43;;;;;;;7.10;1.08;;;10.00;99.90;;;;;;5054585;28;20099;-69
2021/12/14 05:47:16;;;;;;;9.38;1.27;;;10.00;99.90;;;;;;5055285;28;20048;-72
2021/12/14 05:49:44;;;;;;;4.18;0.95;;;10.10;99.90;;;;;;5037219;28;20017;-71
2021/12/14 05:52:25;;;;;;;4.95;1.00;;;10.10;99.90;;;;;;5054632;28;20043;-66
2021/12/14 05:54:54;;;;;;;9.07;1.10;;;10.10;99.90;;;;;;5054887;28;20192;-76
2021/12/14 05:57:23;;;;;;;7.25;1.13;;;10.10;99.90;;;;;;5054726;28;20068;-72
2021/12/14 05:59:52;;;;;;;7.65;1.20;;;10.10;99.90;;;;;;5054436;28;20021;-70
2021/12/14 06:02:19;;;;;;;7.97;1.20;;;10.10;99.90;;;;;;5054726;28;20029;-72
2021/12/14 06:04:49;;;;;;;9.65;1.00;;;10.10;99.90;;;;;;5054480;28;20065;-70
2021/12/14 06:07:16;;;;;;;6.85;1.10;;;10.10;99.90;;;;;;5054540;28;20374;-71
2021/12/14 06:09:46;;;;;;;5.65;1.23;;;10.10;99.90;;;;;;5036178;28;20439;-72
2021/12/14 06:12:24;;;;;;;6.50;1.10;;;10.00;99.90;;;;;;5054002;28;20033;-71
2021/12/14 06:14:52;;;;;;;4.65;1.30;;;10.00;99.90;;;;;;5036790;28;20033;-73
2021/12/14 06:17:29;;;;;;;6.53;1.15;;;10.10;99.90;;;;;;5053857;28;20040;-72
2021/12/14 06:20:05;;;;;;;6.93;1.40;;;10.10;99.90;;;;;;5054548;28;20075;-73
2021/12/14 06:22:32;;;;;;;6.45;1.40;;;10.10;99.90;;;;;;5054259;28;20056;-73
2021/12/14 06:25:05;;;;;;;5.70;1.17;;;10.10;99.90;;;;;;5054112;28;20338;-73
2021/12/14 06:27:32;;;;;;;4.70;1.00;;;10.20;99.90;;;;;;5053683;28;20048;-72
2021/12/14 06:30:04;;;;;;;6.00;1.50;;;10.30;99.90;;;;;;5053794;28;20040;-72
2021/12/14 06:32:39;;;;;;;8.43;1.17;;;10.50;99.90;;;;;;5053579;28;20412;-74
2021/12/14 06:35:10;;;;;;;6.90;1.35;;;11.00;99.90;;;;;;5054369;28;20043;-72
2021/12/14 06:38:08;;;;;;;6.40;1.40;;;11.40;99.90;;;;;;5035314;28;20118;-72
2021/12/14 06:40:52;;;;;;;8.55;1.60;;;11.90;99.90;;;;;;5053267;28;20203;-74
2021/12/14 06:43:27;;;;;;;9.70;2.03;;;12.70;99.90;;;;;;5053074;28;20136;-73
2021/12/14 06:46:04;;;;;;;15.60;2.25;;;13.70;99.90;;;;;;5052700;28;20029;-73
2021/12/14 06:49:37;;;;;;;10.77;2.13;;;14.80;99.90;;;;;;5052696;28;20094;-68
2021/12/14 06:52:23;;;;;;;7.18;1.58;;;15.70;99.10;;;;;;4936340;29;20038;-70
2021/12/14 06:55:22;;;;;;;10.55;1.60;;;16.50;97.30;;;;;;4953214;29;20027;-70
2021/12/14 06:57:50;;;;;;;8.60;1.77;;;17.20;96.00;;;;;;4953175;29;20167;-73
2021/12/14 07:00:17;;;;;;;14.82;1.77;;;17.80;95.20;;;;;;4952269;29;20027;-73
2021/12/14 07:02:51;;;;;;;13.70;1.73;;;18.10;94.60;;;;;;4952186;29;20058;-73
2021/12/14 07:05:23;;;;;;;11.55;2.00;;;18.80;93.80;;;;;;4952380;29;20035;-73
2021/12/14 07:07:49;;;;;;;8.85;1.35;;;19.20;93.10;;;;;;4951970;29;20024;-74
2021/12/14 07:10:16;;;;;;;8.30;1.35;;;19.80;92.10;;;;;;4951976;29;20046;-73
2021/12/14 07:12:43;;;;;;;8.32;1.50;;;20.40;91.20;;;;;;4952205;29;20031;-74
2021/12/14 07:15:20;;;;;;;6.13;1.58;;;21.00;90.20;;;;;;4951671;28;20043;-73
2021/12/14 07:18:01;;;;;;;10.48;1.33;;;21.60;88.40;;;;;;4936128;29;20043;-75
2021/12/14 07:20:34;;;;;;;4.72;1.02;;;20.80;87.50;;;;;;4952295;29;20050;-75
2021/12/14 07:23:25;;;;;;;13.90;1.48;;;19.30;89.70;;;;;;4952498;29;20066;-74
2021/12/14 07:25:55;;;;;;;4.88;1.20;;;18.70;91.00;;;;;;4952544;29;20435;-74
2021/12/14 07:28:21;;;;;;;6.18;1.60;;;19.30;91.00;;;;;;5009670;28;20045;-74
2021/12/14 07:30:56;;;;;;;;;;;20.20;90.10;;;;;;5034116;28;20058;-74
2021/12/14 07:33:29;;;;;;;10.05;1.70;;;20.60;88.70;;;;;;5050717;28;19948;-77
2021/12/14 07:36:07;;;;;;;9.13;1.67;;;21.50;86.90;;;;;;5034119;28;20025;-74
2021/12/14 07:38:44;;;;;;;8.38;1.38;;;22.20;85.30;;;;;;5052184;28;20033;-74
2021/12/14 07:41:21;;;;;;;7.22;1.10;;;21.60;84.90;;;;;;5052209;28;20037;-74
2021/12/14 07:44:02;;;;;;;8.68;1.50;;;21.40;85.30;;;;;;5052774;28;20049;-74
2021/12/14 07:46:44;;;;;;;8.63;1.30;;;20.30;87.10;;;;;;5052622;28;20023;-74
2021/12/14 07:49:23;;;;;;;8.25;1.30;;;19.70;88.80;;;;;;5052461;28;20523;-73
2021/12/14 07:51:54;;;;;;;10.32;1.48;;;19.30;90.00;;;;;;5051953;28;20112;-74
2021/12/14 07:54:27;;;;;;;8.68;1.60;;;19.20;90.40;;;;;;5034623;28;20029;-73
2021/12/14 07:57:07;;;;;;;12.27;1.48;;;18.90;90.90;;;;;;5052423;28;20116;-73
2021/12/14 07:59:43;;;;;;;8.77;2.10;;;18.80;91.10;;;;;;5035723;28;20474;-75
2021/12/14 08:02:34;;;;;;;9.70;1.85;;;18.40;91.80;;;;;;5051991;28;20103;-72
2021/12/14 08:05:11;;;;;;;10.65;1.63;;;18.40;92.00;;;;;;5052040;28;20028;-73
2021/12/14 08:07:45;;;;;;;31.20;3.92;;;18.20;92.40;;;;;;5052316;28;20032;-74
2021/12/14 08:10:21;;;;;;;13.68;3.75;;;18.20;92.80;;;;;;5033969;28;20025;-74
2021/12/14 08:12:56;;;;;;;;;;;18.20;92.90;;;;;;5034339;28;20029;-72
2021/12/14 08:15:39;;;;;;;5.28;1.60;;;18.20;93.00;;;;;;5033762;28;20381;-73
2021/12/14 08:18:30;;;;;;;11.93;2.70;;;18.10;93.00;;;;;;5052017;28;20048;-75
2021/12/14 08:21:17;;;;;;;7.35;1.10;;;18.00;93.10;;;;;;5034515;28;20352;-73
2021/12/14 08:23:51;;;;;;;7.32;1.60;;;18.00;93.20;;;;;;5052187;28;20116;-75
2021/12/14 08:26:33;;;;;;;7.78;1.90;;;17.90;93.50;;;;;;5051822;28;20480;-73
2021/12/14 08:29:11;;;;;;;9.23;2.00;;;18.00;93.60;;;;;;5055713;28;20485;-74
2021/12/14 08:32:03;;;;;;;11.52;1.55;;;18.00;93.50;;;;;;5056007;28;20036;-74
2021/12/14 08:34:34;;;;;;;16.67;5.05;;;18.00;93.50;;;;;;5043948;28;20044;-74
2021/12/14 08:37:21;;;;;;;12.52;1.98;;;18.10;93.60;;;;;;5037799;28;20079;-74
2021/12/14 08:40:02;;;;;;;8.35;1.70;;;18.00;93.60;;;;;;5055127;28;20036;-74
2021/12/14 08:43:13;;;;;;;7.55;1.58;;;18.00;93.50;;;;;;5055746;28;20090;-74
2021/12/14 08:45:43;;;;;;;7.05;1.40;;;18.10;93.60;;;;;;4954785;29;20094;-75
2021/12/14 08:48:18;;;;;;;8.90;2.40;;;18.20;93.70;;;;;;4955464;29;20069;-74
2021/12/14 08:50:52;;;;;;;7.68;1.70;;;18.20;93.40;;;;;;4955038;29;20059;-73
2021/12/14 08:53:18;;;;;;;8.93;1.95;;;18.30;93.50;;;;;;4939412;29;20121;-75
2021/12/14 08:55:48;;;;;;;8.57;1.77;;;18.30;93.50;;;;;;4938812;29;20448;-72
2021/12/14 08:58:16;;;;;;;6.65;1.90;;;18.30;93.70;;;;;;4955158;29;20567;-73
2021/12/14 09:00:51;;;;;;;9.25;1.20;;;18.30;93.50;;;;;;4954827;29;20037;-73
2021/12/14 09:03:31;;;;;;;8.93;1.88;;;18.30;93.20;;;;;;4955169;29;20042;-72
2021/12/14 09:05:59;;;;;;;7.40;1.70;;;18.20;93.40;;;;;;4939366;29;20042;-75
2021/12/14 09:08:25;;;;;;;7.88;2.10;;;18.10;93.40;;;;;;4955209;29;20039;-72
2021/12/14 09:10:53;;;;;;;10.32;2.00;;;18.10;93.20;;;;;;4955098;29;20024;-73
2021/12/14 09:13:21;;;;;;;11.20;3.28;;;18.00;93.90;;;;;;4954646;29;20039;-72
2021/12/14 09:16:09;;;;;;;10.63;3.08;;;18.00;94.10;;;;;;4954707;29;20098;-73
2021/12/14 09:18:40;;;;;;;11.57;3.00;;;17.80;94.20;;;;;;4953447;28;20041;-72
2021/12/14 09:21:19;;;;;;;12.30;3.00;;;17.80;94.40;;;;;;5054658;28;20029;-74
2021/12/14 09:23:49;;;;;;;20.15;5.78;;;17.90;95.00;;;;;;5054888;28;20104;-74
2021/12/14 09:26:20;;;;;;;9.50;2.78;;;17.80;95.00;;;;;;5054876;28;20033;-72
2021/12/14 09:28:48;;;;;;;7.68;2.13;;;17.90;94.90;;;;;;5054357;28;20045;-72
2021/12/14 09:31:19;;;;;;;7.10;1.80;;;17.80;95.10;;;;;;5036500;28;20050;-73
2021/12/14 09:33:47;;;;;;;6.82;1.92;;;17.40;94.90;;;;;;5054362;28;20047;-75
2021/12/14 09:36:14;;;;;;;9.88;2.50;;;17.10;95.60;;;;;;5036140;28;20033;-72
2021/12/14 09:39:12;;;;;;;10.80;1.83;;;17.20;96.00;;;;;;5035970;28;20029;-72
2021/12/14 09:41:44;;;;;;;6.40;1.70;;;17.40;95.70;;;;;;5054262;28;20036;-72
2021/12/14 09:44:16;;;;;;;11.52;3.15;;;17.10;95.70;;;;;;5054263;28;20029;-72
2021/12/14 09:46:43;;;;;;;13.25;3.42;;;17.20;96.00;;;;;;5054444;28;20025;-72
2021/12/14 09:49:11;;;;;;;8.32;1.85;;;17.00;95.70;;;;;;5036167;28;20452;-71
2021/12/14 09:52:02;;;;;;;5.70;1.20;;;16.90;95.90;;;;;;5035863;28;20075;-71
2021/12/14 09:54:30;;;;;;;5.63;1.40;;;16.90;96.20;;;;;;5051763;28;20087;-71
2021/12/14 09:57:03;;;;;;;4.68;1.48;;;17.00;96.30;;;;;;5036008;28;20040;-71
2021/12/14 09:59:31;;;;;;;3.67;1.40;;;17.00;96.10;;;;;;5036043;28;20025;-73
2021/12/14 10:02:02;;;;;;;5.05;1.30;;;17.30;96.10;;;;;;5053755;28;20060;-74
2021/12/14 10:04:39;;;;;;;5.63;1.25;;;17.20;95.90;;;;;;5054012;28;20446;-71
2021/12/14 10:07:09;;;;;;;3.40;1.20;;;17.40;95.80;;;;;;5053860;28;20040;-73
2021/12/14 10:09:39;;;;;;;6.45;1.42;;;17.50;96.00;;;;;;5053571;28;20031;-73
2021/12/14 10:12:39;;;;;;;8.73;1.60;;;17.30;96.20;;;;;;5053928;28;20029;-72
2021/12/14 10:15:36;;;;;;;7.72;1.50;;;16.90;96.50;;;;;;5053454;28;20025;-73
2021/12/14 10:18:12;;;;;;;5.15;1.20;;;16.80;97.00;;;;;;5054036;28;20036;-73
2021/12/14 10:20:44;;;;;;;7.10;1.50;;;16.70;96.80;;;;;;5054033;28;20040;-72
2021/12/14 10:23:12;;;;;;;7.97;2.00;;;16.70;97.20;;;;;;5053677;28;20369;-73
2021/12/14 10:25:39;;;;;;;6.38;1.50;;;17.00;96.90;;;;;;5054002;28;20481;-72
2021/12/14 10:28:06;;;;;;;6.90;1.73;;;17.40;96.90;;;;;;5053339;28;20610;-72
2021/12/14 10:30:43;;;;;;;7.15;1.63;;;17.70;96.20;;;;;;5053856;28;20025;-73
2021/12/14 10:33:11;;;;;;;7.85;1.77;;;17.90;96.10;;;;;;5053665;28;20057;-71
2021/12/14 10:35:48;;;;;;;7.55;1.77;;;17.20;96.20;;;;;;5053265;28;20040;-73
2021/12/14 10:43:38;;;;;;;7.80;1.40;;;17.00;97.00;;;;;;5038038;28;20139;-73
2021/12/14 10:46:17;;;;;;;7.28;1.77;;;16.60;97.50;;;;;;5053137;28;20021;-73
2021/12/14 10:48:50;;;;;;;4.72;1.10;;;16.60;97.60;;;;;;5034786;28;20124;-72
2021/12/14 10:51:23;;;;;;;8.10;1.20;;;16.60;97.50;;;;;;5019162;28;20036;-72
2021/12/14 10:53:52;;;;;;;6.80;1.58;;;16.50;97.10;;;;;;5053475;28;20029;-72
2021/12/14 10:56:26;;;;;;;13.75;2.30;;;16.50;97.50;;;;;;5053029;28;20136;-72
2021/12/14 10:58:56;;;;;;;9.48;2.15;;;16.50;97.90;;;;;;5053451;28;20104;-73
2021/12/14 11:01:30;;;;;;;7.78;1.80;;;16.50;97.60;;;;;;5052315;28;20029;-73
2021/12/14 11:04:06;;;;;;;4.63;1.40;;;16.40;97.60;;;;;;5052180;28;20483;-73
2021/12/14 11:06:36;;;;;;;6.88;1.52;;;16.60;97.40;;;;;;5034588;28;20032;-72
2021/12/14 11:11:45;;;;;;;6.50;1.33;;;16.80;97.40;;;;;;5052520;28;20025;-73
2021/12/14 11:14:14;;;;;;;6.93;1.52;;;16.70;97.50;;;;;;5034449;28;20047;-72
2021/12/14 11:20:12;;;;;;;3.75;1.40;;;16.80;97.80;;;;;;4989943;28;20081;-71
2021/12/14 11:22:45;;;;;;;7.38;1.30;;;16.90;96.90;;;;;;4991228;28;20034;-71
2021/12/14 11:25:19;;;;;;;6.82;1.55;;;16.70;97.30;;;;;;4990741;28;20070;-73
2021/12/14 11:27:52;;;;;;;5.28;1.67;;;16.70;97.30;;;;;;4990572;28;20472;-73
2021/12/14 11:30:30;;;;;;;7.55;1.40;;;16.80;97.40;;;;;;4990462;28;20463;-72
2021/12/14 11:33:13;;;;;;;9.00;1.75;;;17.10;97.20;;;;;;4974241;28;20034;-70
2021/12/14 11:35:44;;;;;;;13.30;1.77;;;17.60;96.60;;;;;;4990442;28;20030;-71
2021/12/14 11:38:29;;;;;;;4.07;1.40;;;17.90;95.80;;;;;;4958225;28;20066;-72
2021/12/14 11:40:57;;;;;;;7.18;1.30;;;18.20;95.10;;;;;;4974062;28;20033;-72
2021/12/14 11:43:28;;;;;;;4.70;1.20;;;18.40;94.80;;;;;;4990515;28;20090;-72
2021/12/14 11:45:55;;;;;;;4.25;1.23;;;18.20;94.90;;;;;;4974293;28;20022;-73
2021/12/14 11:48:32;;;;;;;5.47;1.40;;;17.90;95.10;;;;;;4974291;28;20174;-73
2021/12/14 11:51:02;;;;;;;9.30;1.90;;;18.00;95.30;;;;;;5025887;28;20041;-71
2021/12/14 11:53:28;;;;;;;13.77;1.98;;;18.30;97.20;;;;;;5051939;28;20025;-72
2021/12/14 11:55:56;;;;;;;7.72;1.95;;;18.60;97.30;;;;;;5033683;28;20021;-71
2021/12/14 11:58:45;;;;;;;6.78;1.60;;;18.70;97.20;;;;;;5051334;28;20064;-71
2021/12/14 12:01:26;;;;;;;5.88;1.70;;;18.40;95.50;;;;;;5050209;28;20027;-71
2021/12/14 12:04:04;;;;;;;8.93;1.92;;;18.70;96.20;;;;;;5051416;28;20029;-71
2021/12/14 12:09:30;;;;;;;7.88;1.85;;;18.90;97.90;;;;;;5051788;28;20037;-72
2021/12/14 12:12:07;;;;;;;7.00;1.70;;;19.10;97.70;;;;;;5051035;28;20037;-71
2021/12/14 12:14:44;;;;;;;7.22;1.50;;;19.00;97.80;;;;;;5050881;28;20377;-72
2021/12/14 12:17:23;;;;;;;10.32;2.20;;;19.00;97.70;;;;;;5050244;28;20040;-71
2021/12/14 12:20:05;;;;;;;6.68;1.73;;;18.80;97.40;;;;;;5032733;28;20037;-71
2021/12/14 12:22:50;;;;;;;6.22;1.80;;;18.60;97.40;;;;;;5051063;28;20028;-73
2021/12/14 12:25:28;;;;;;;5.15;1.48;;;18.60;97.70;;;;;;5033483;28;20052;-71
2021/12/14 12:28:04;;;;;;;8.63;1.70;;;18.50;97.70;;;;;;5051130;28;20131;-71
2021/12/14 12:30:50;;;;;;;14.13;1.83;;;18.10;98.10;;;;;;5051706;28;20025;-72
2021/12/14 12:33:19;;;;;;;;;;;17.90;98.20;;;;;;5051893;28;20025;-71
2021/12/14 12:36:06;;;;;;;7.25;1.60;;;17.80;96.40;;;;;;5051540;28;19904;-71
2021/12/14 12:39:03;;;;;;;5.25;1.13;;;17.70;96.00;;;;;;5051587;28;20040;-73
2021/12/14 12:41:58;;;;;;;3.88;1.30;;;17.50;95.70;;;;;;5051193;28;20029;-72
2021/12/14 12:44:28;;;;;;;4.72;1.40;;;17.30;95.70;;;;;;5051375;28;20017;-71
2021/12/14 12:47:27;;;;;;;8.82;1.65;;;16.80;96.30;;;;;;5051457;28;20025;-71
2021/12/14 12:49:58;;;;;;;7.20;2.35;;;16.50;97.00;;;;;;4951359;29;20050;-72
2021/12/14 12:52:30;;;;;;;8.48;1.85;;;16.80;97.00;;;;;;4951134;29;20542;-71
2021/12/14 12:55:11;;;;;;;5.03;1.63;;;16.90;97.00;;;;;;4935168;29;20123;-71
2021/12/14 12:58:14;;;;;;;6.13;1.52;;;17.00;96.40;;;;;;4951011;29;20090;-71
2021/12/14 13:00:44;;;;;;;7.35;1.70;;;17.30;96.20;;;;;;4911898;29;20044;-72
2021/12/14 13:03:19;;;;;;;7.55;1.70;;;17.60;96.10;;;;;;4897187;29;20048;-71
2021/12/14 13:06:01;;;;;;;6.25;1.50;;;17.80;95.20;;;;;;4913310;29;20438;-71
2021/12/14 13:08:36;;;;;;;4.57;1.38;;;17.90;94.90;;;;;;4913397;29;20024;-71
2021/12/14 13:11:05;;;;;;;4.18;1.48;;;17.90;94.30;;;;;;4913492;29;20040;-71
2021/12/14 13:13:36;;;;;;;5.28;1.30;;;17.90;94.30;;;;;;4914811;29;20040;-72
2021/12/14 13:16:17;;;;;;;5.13;1.17;;;17.90;94.30;;;;;;4916910;29;20111;-71
2021/12/14 13:19:02;;;;;;;3.75;0.98;;;18.10;94.20;;;;;;4917367;29;20048;-71
2021/12/14 13:21:46;;;;;;;4.80;1.20;;;18.10;92.60;;;;;;4901113;29;20334;-71
2021/12/14 13:24:14;;;;;;;3.45;0.90;;;18.00;92.40;;;;;;4900824;29;20064;-71
2021/12/14 13:26:48;;;;;;;4.82;1.30;;;18.00;91.90;;;;;;4967099;28;20052;-71
2021/12/14 13:29:32;;;;;;;4.10;1.10;;;17.90;93.00;;;;;;4993219;28;20055;-71
2021/12/14 13:32:04;;;;;;;4.72;1.15;;;17.90;91.10;;;;;;4977258;28;20426;-71
2021/12/14 13:34:36;;;;;;;3.15;1.23;;;17.50;91.70;;;;;;4993793;28;20122;-71
2021/12/14 13:37:03;;;;;;;4.45;1.10;;;17.40;91.80;;;;;;5026940;28;20134;-72
2021/12/14 13:39:30;;;;;;;2.45;1.00;;;17.40;91.90;;;;;;5054791;28;20021;-71
2021/12/14 13:41:59;;;;;;;7.35;1.40;;;17.50;91.80;;;;;;5054599;28;20116;-70
2021/12/14 13:44:29;;;;;;;2.15;0.80;;;17.70;92.50;;;;;;5054209;28;20025;-70
2021/12/14 13:46:57;;;;;;;4.93;1.30;;;17.60;92.30;;;;;;5054508;28;20029;-71
2021/12/14 13:49:24;;;;;;;7.03;1.10;;;17.60;92.80;;;;;;5054661;28;20055;-70
2021/12/14 13:51:50;;;;;;;3.13;0.82;;;17.70;92.50;;;;;;5054876;28;20089;-71
2021/12/14 13:54:16;;;;;;;3.58;1.10;;;17.60;92.10;;;;;;5054541;28;20056;-70
2021/12/14 13:56:45;;;;;;;3.67;1.10;;;17.40;92.30;;;;;;5036178;28;20032;-71
2021/12/14 13:59:15;;;;;;;3.15;0.98;;;17.50;92.40;;;;;;5054299;28;20025;-71
2021/12/14 14:01:50;;;;;;;6.22;1.13;;;17.60;92.80;;;;;;5054177;28;20465;-71
2021/12/14 14:04:21;;;;;;;3.88;0.93;;;17.60;92.40;;;;;;5036244;28;20098;-70
2021/12/14 14:06:48;;;;;;;4.22;1.02;;;17.50;92.10;;;;;;5054246;28;20039;-70
2021/12/14 14:09:25;;;;;;;3.53;1.00;;;17.30;92.70;;;;;;5054095;28;20029;-71